Questo sito utilizza i cookie per fornire la migliore esperienza di navigazione possibile. Continuando a utilizzare questo sito senza modificare le impostazioni dei cookie o cliccando su "Accetto" permetti il loro utilizzo.

Preferenzecookies

Meteo

07/12/2021TempoProb.Precip.Temp.(°C)Umidità(%)Vento(km/h)Raffiche(km/h)
04:00 Nuvoloso 10% 7 76 12 27
07:00 Sereno - 6 65 18 45
10:00 Poco nuvoloso - 6 67 16 41
13:00 Molto nuvoloso - 7 67 22 58
16:00 Sereno - 6 62 22 50
19:00 Sereno - 5 69 22 50
22:00 Sereno - 4 66 16 49
08/12/2021TempoProb.Precip.Temp.(°C)Umidità(%)Vento(km/h)Raffiche(km/h)
01:00 Sereno - 4 60 16 38
04:00 Sereno - 5 54 11 36
07:00 Molto nuvoloso - 5 43 7 25
10:00 Nuvoloso - 8 70 1 14
13:00 Nuvoloso 10% 10 71 7 18
16:00 Coperto 20% 10 71 11 23
19:00 Nuvoloso 10% 11 74 7 23
22:00 Poco nuvoloso - 10 81 12 31
09/12/2021TempoProb.Precip.Temp.(°C)Umidità(%)Vento(km/h)Raffiche(km/h)
01:00 Coperto 40% 11 84 12 29
04:00 Coperto con pioggia moderata 60% 10 93 7 56
07:00 Coperto con pioggia forte 70% 8 96 5 47
10:00 Coperto con pioggia forte 70% 7 91 1 31
13:00 Coperto con pioggia debole 30% 8 86 14 34
16:00 Coperto con temporale 30% 9 91 31 72
19:00 Coperto con temporale 30% 8 92 24 74
Note a riguardo

Aggiornamento pagina: 07/12/2021 02:28 UTC.

Logo Meteo Aeronautica Militare
A cura del Servizio Meteorologico dell'Aeronautica Militare

Leggi anche